sensor_id;sensor_type;location;lat;lon;timestamp;pressure;altitude;pressure_sealevel;temperature;humidity
38880;BME280;25887;30.194;-97.880;2023-03-16T00:00:18;98529.81;;;23.87;41.91
38880;BME280;25887;30.194;-97.880;2023-03-16T00:02:44;98529.13;;;23.83;42.09
38880;BME280;25887;30.194;-97.880;2023-03-16T00:05:12;98529.25;;;23.80;42.17
38880;BME280;25887;30.194;-97.880;2023-03-16T00:07:39;98525.88;;;23.78;42.45
38880;BME280;25887;30.194;-97.880;2023-03-16T00:10:07;98526.81;;;23.77;42.45
38880;BME280;25887;30.194;-97.880;2023-03-16T00:12:34;98526.03;;;23.75;42.27
38880;BME280;25887;30.194;-97.880;2023-03-16T00:15:00;98516.47;;;23.74;42.11
38880;BME280;25887;30.194;-97.880;2023-03-16T00:17:27;98506.13;;;23.71;42.70
38880;BME280;25887;30.194;-97.880;2023-03-16T00:19:54;98516.78;;;23.68;42.50
38880;BME280;25887;30.194;-97.880;2023-03-16T00:22:28;98517.72;;;23.67;42.59
38880;BME280;25887;30.194;-97.880;2023-03-16T00:24:56;98510.91;;;23.63;42.48
38880;BME280;25887;30.194;-97.880;2023-03-16T00:27:24;98504.91;;;23.61;43.21
38880;BME280;25887;30.194;-97.880;2023-03-16T00:29:52;98513.81;;;23.57;42.75
38880;BME280;25887;30.194;-97.880;2023-03-16T00:32:35;98517.44;;;23.54;43.04
38880;BME280;25887;30.194;-97.880;2023-03-16T00:35:20;98507.19;;;23.50;43.14
38880;BME280;25887;30.194;-97.880;2023-03-16T00:37:46;98517.84;;;23.47;43.08
38880;BME280;25887;30.194;-97.880;2023-03-16T00:40:24;98512.81;;;23.42;43.35
38880;BME280;25887;30.194;-97.880;2023-03-16T00:43:07;98522.69;;;23.37;43.58
38880;BME280;25887;30.194;-97.880;2023-03-16T00:45:33;98508.09;;;23.31;43.55
38880;BME280;25887;30.194;-97.880;2023-03-16T00:48:04;98499.47;;;23.29;43.97
38880;BME280;25887;30.194;-97.880;2023-03-16T00:50:30;98500.50;;;23.27;43.70
38880;BME280;25887;30.194;-97.880;2023-03-16T00:52:57;98503.16;;;23.25;43.82
38880;BME280;25887;30.194;-97.880;2023-03-16T00:55:44;98503.25;;;23.24;44.14
38880;BME280;25887;30.194;-97.880;2023-03-16T00:58:13;98503.50;;;23.19;44.11
38880;BME280;25887;30.194;-97.880;2023-03-16T01:00:40;98510.72;;;23.14;44.20
38880;BME280;25887;30.194;-97.880;2023-03-16T01:03:06;98512.41;;;23.15;43.88
38880;BME280;25887;30.194;-97.880;2023-03-16T01:05:32;98513.47;;;23.11;44.22
38880;BME280;25887;30.194;-97.880;2023-03-16T01:07:58;98509.25;;;23.08;44.27
38880;BME280;25887;30.194;-97.880;2023-03-16T01:10:27;98511.00;;;23.08;44.15
38880;BME280;25887;30.194;-97.880;2023-03-16T01:12:53;98494.53;;;23.06;44.03
38880;BME280;25887;30.194;-97.880;2023-03-16T01:15:21;98484.13;;;23.04;44.11
38880;BME280;25887;30.194;-97.880;2023-03-16T01:17:47;98509.47;;;23.04;44.28
38880;BME280;25887;30.194;-97.880;2023-03-16T01:20:13;98515.63;;;23.03;44.23
38880;BME280;25887;30.194;-97.880;2023-03-16T01:22:44;98515.78;;;23.00;44.21
38880;BME280;25887;30.194;-97.880;2023-03-16T01:25:12;98515.84;;;22.98;44.63
38880;BME280;25887;30.194;-97.880;2023-03-16T01:27:40;98513.44;;;22.94;44.89
38880;BME280;25887;30.194;-97.880;2023-03-16T01:30:08;98511.84;;;22.91;44.72
38880;BME280;25887;30.194;-97.880;2023-03-16T01:32:38;98511.09;;;22.88;44.97
38880;BME280;25887;30.194;-97.880;2023-03-16T01:35:06;98513.84;;;22.85;45.20
38880;BME280;25887;30.194;-97.880;2023-03-16T01:37:32;98507.84;;;22.83;44.79
38880;BME280;25887;30.194;-97.880;2023-03-16T01:39:59;98514.13;;;22.78;44.96
38880;BME280;25887;30.194;-97.880;2023-03-16T01:42:58;98519.47;;;22.77;45.00
38880;BME280;25887;30.194;-97.880;2023-03-16T01:48:32;98517.13;;;22.71;45.39
38880;BME280;25887;30.194;-97.880;2023-03-16T01:51:15;98508.78;;;22.63;45.66
38880;BME280;25887;30.194;-97.880;2023-03-16T01:53:47;98522.94;;;22.59;45.42
38880;BME280;25887;30.194;-97.880;2023-03-16T01:56:19;98516.13;;;22.55;45.91
38880;BME280;25887;30.194;-97.880;2023-03-16T01:58:51;98529.38;;;22.51;45.86
38880;BME280;25887;30.194;-97.880;2023-03-16T02:01:17;98537.31;;;22.50;45.76
38880;BME280;25887;30.194;-97.880;2023-03-16T02:03:45;98531.28;;;22.48;45.76
38880;BME280;25887;30.194;-97.880;2023-03-16T02:06:15;98541.84;;;22.46;45.69
38880;BME280;25887;30.194;-97.880;2023-03-16T02:08:44;98546.22;;;22.46;45.93
38880;BME280;25887;30.194;-97.880;2023-03-16T02:11:12;98542.94;;;22.41;46.13
38880;BME280;25887;30.194;-97.880;2023-03-16T02:13:44;98531.00;;;22.35;46.34
38880;BME280;25887;30.194;-97.880;2023-03-16T02:16:11;98531.28;;;22.29;46.94
38880;BME280;25887;30.194;-97.880;2023-03-16T02:18:47;98537.63;;;22.23;46.87
38880;BME280;25887;30.194;-97.880;2023-03-16T02:23:45;98551.06;;;22.16;47.13
38880;BME280;25887;30.194;-97.880;2023-03-16T02:26:27;98541.59;;;22.13;47.43
38880;BME280;25887;30.194;-97.880;2023-03-16T02:31:26;98554.22;;;22.02;47.37
38880;BME280;25887;30.194;-97.880;2023-03-16T02:33:53;98547.44;;;21.98;47.64
38880;BME280;25887;30.194;-97.880;2023-03-16T02:36:20;98555.44;;;21.95;47.77
38880;BME280;25887;30.194;-97.880;2023-03-16T02:38:47;98547.72;;;21.92;47.98
38880;BME280;25887;30.194;-97.880;2023-03-16T02:41:15;98550.41;;;21.90;48.00
38880;BME280;25887;30.194;-97.880;2023-03-16T02:43:53;98539.22;;;21.87;48.21
38880;BME280;25887;30.194;-97.880;2023-03-16T02:49:44;98544.84;;;21.78;48.25
38880;BME280;25887;30.194;-97.880;2023-03-16T02:52:10;98542.38;;;21.75;48.29
38880;BME280;25887;30.194;-97.880;2023-03-16T02:54:37;98547.66;;;21.73;48.34
38880;BME280;25887;30.194;-97.880;2023-03-16T02:57:03;98535.56;;;21.70;48.65
38880;BME280;25887;30.194;-97.880;2023-03-16T02:59:30;98539.28;;;21.65;48.90
38880;BME280;25887;30.194;-97.880;2023-03-16T03:01:56;98549.88;;;21.62;48.79
38880;BME280;25887;30.194;-97.880;2023-03-16T03:04:23;98554.31;;;21.60;48.69
38880;BME280;25887;30.194;-97.880;2023-03-16T03:06:50;98553.53;;;21.58;48.83
38880;BME280;25887;30.194;-97.880;2023-03-16T03:09:17;98549.25;;;21.55;48.88
38880;BME280;25887;30.194;-97.880;2023-03-16T03:11:44;98555.47;;;21.53;48.75
38880;BME280;25887;30.194;-97.880;2023-03-16T03:14:13;98556.53;;;21.49;48.96
38880;BME280;25887;30.194;-97.880;2023-03-16T03:16:41;98551.41;;;21.46;49.05
38880;BME280;25887;30.194;-97.880;2023-03-16T03:19:11;98557.63;;;21.43;48.94
38880;BME280;25887;30.194;-97.880;2023-03-16T03:21:39;98552.59;;;21.38;49.29
38880;BME280;25887;30.194;-97.880;2023-03-16T03:24:05;98546.72;;;21.33;49.73
38880;BME280;25887;30.194;-97.880;2023-03-16T03:26:32;98539.97;;;21.28;49.80
38880;BME280;25887;30.194;-97.880;2023-03-16T03:28:58;98542.72;;;21.23;49.95
38880;BME280;25887;30.194;-97.880;2023-03-16T03:31:25;98536.84;;;21.18;50.49
38880;BME280;25887;30.194;-97.880;2023-03-16T03:33:51;98538.84;;;21.11;50.55
38880;BME280;25887;30.194;-97.880;2023-03-16T03:36:18;98537.25;;;21.07;50.60
38880;BME280;25887;30.194;-97.880;2023-03-16T03:38:44;98540.91;;;21.03;50.78
38880;BME280;25887;30.194;-97.880;2023-03-16T03:41:10;98532.31;;;21.01;50.80
38880;BME280;25887;30.194;-97.880;2023-03-16T03:43:37;98532.41;;;20.98;50.67
38880;BME280;25887;30.194;-97.880;2023-03-16T03:46:04;98541.16;;;20.97;50.87
38880;BME280;25887;30.194;-97.880;2023-03-16T03:48:30;98534.25;;;20.96;50.92
38880;BME280;25887;30.194;-97.880;2023-03-16T03:50:59;98525.63;;;20.94;51.16
38880;BME280;25887;30.194;-97.880;2023-03-16T03:53:25;98532.66;;;20.92;51.19
38880;BME280;25887;30.194;-97.880;2023-03-16T03:55:52;98529.19;;;20.92;51.12
38880;BME280;25887;30.194;-97.880;2023-03-16T03:58:19;98525.78;;;20.90;51.18
38880;BME280;25887;30.194;-97.880;2023-03-16T04:00:45;98512.72;;;20.90;51.45
38880;BME280;25887;30.194;-97.880;2023-03-16T04:03:13;98522.31;;;20.89;51.75
38880;BME280;25887;30.194;-97.880;2023-03-16T04:05:41;98520.63;;;20.88;51.88
38880;BME280;25887;30.194;-97.880;2023-03-16T04:08:07;98530.22;;;20.88;51.87
38880;BME280;25887;30.194;-97.880;2023-03-16T04:10:33;98520.69;;;20.86;51.82
38880;BME280;25887;30.194;-97.880;2023-03-16T04:12:59;98518.94;;;20.87;51.82
38880;BME280;25887;30.194;-97.880;2023-03-16T04:15:25;98519.84;;;20.86;51.93
38880;BME280;25887;30.194;-97.880;2023-03-16T04:18:04;98515.50;;;20.85;52.13
38880;BME280;25887;30.194;-97.880;2023-03-16T04:20:30;98514.00;;;20.79;52.05
38880;BME280;25887;30.194;-97.880;2023-03-16T04:22:57;98515.78;;;20.79;52.26
38880;BME280;25887;30.194;-97.880;2023-03-16T04:25:25;98506.28;;;20.76;52.36
38880;BME280;25887;30.194;-97.880;2023-03-16T04:27:52;98507.19;;;20.75;52.39
38880;BME280;25887;30.194;-97.880;2023-03-16T04:30:18;98508.09;;;20.74;52.31
38880;BME280;25887;30.194;-97.880;2023-03-16T04:32:47;98492.56;;;20.71;52.46
38880;BME280;25887;30.194;-97.880;2023-03-16T04:35:13;98491.59;;;20.74;52.31
38880;BME280;25887;30.194;-97.880;2023-03-16T04:37:40;98490.81;;;20.72;52.65
38880;BME280;25887;30.194;-97.880;2023-03-16T04:40:06;98497.06;;;20.68;52.78
38880;BME280;25887;30.194;-97.880;2023-03-16T04:42:40;98485.88;;;20.64;53.07
38880;BME280;25887;30.194;-97.880;2023-03-16T04:45:06;98486.75;;;20.65;53.03
38880;BME280;25887;30.194;-97.880;2023-03-16T04:47:33;98487.69;;;20.62;52.95
38880;BME280;25887;30.194;-97.880;2023-03-16T04:50:00;98491.22;;;20.61;53.08
38880;BME280;25887;30.194;-97.880;2023-03-16T04:52:27;98481.63;;;20.62;52.99
38880;BME280;25887;30.194;-97.880;2023-03-16T04:54:53;98480.78;;;20.61;53.03
38880;BME280;25887;30.194;-97.880;2023-03-16T04:57:20;98483.50;;;20.58;53.20
38880;BME280;25887;30.194;-97.880;2023-03-16T04:59:46;98473.91;;;20.58;53.34
38880;BME280;25887;30.194;-97.880;2023-03-16T05:02:12;98480.06;;;20.57;53.38
38880;BME280;25887;30.194;-97.880;2023-03-16T05:04:39;98463.66;;;20.54;53.43
38880;BME280;25887;30.194;-97.880;2023-03-16T05:07:05;98465.47;;;20.52;53.46
38880;BME280;25887;30.194;-97.880;2023-03-16T05:09:31;98456.00;;;20.49;53.81
38880;BME280;25887;30.194;-97.880;2023-03-16T05:11:57;98459.47;;;20.50;53.84
38880;BME280;25887;30.194;-97.880;2023-03-16T05:14:24;98459.53;;;20.48;53.81
38880;BME280;25887;30.194;-97.880;2023-03-16T05:16:50;98450.84;;;20.48;53.87
38880;BME280;25887;30.194;-97.880;2023-03-16T05:19:16;98449.19;;;20.45;53.84
38880;BME280;25887;30.194;-97.880;2023-03-16T05:28:27;98443.16;;;20.43;53.83
38880;BME280;25887;30.194;-97.880;2023-03-16T05:30:53;98437.94;;;20.43;53.90
38880;BME280;25887;30.194;-97.880;2023-03-16T05:33:19;98446.66;;;20.44;53.69
38880;BME280;25887;30.194;-97.880;2023-03-16T05:35:46;98433.59;;;20.44;54.04
38880;BME280;25887;30.194;-97.880;2023-03-16T05:38:13;98433.63;;;20.42;54.21
38880;BME280;25887;30.194;-97.880;2023-03-16T05:40:40;98428.41;;;20.42;54.41
38880;BME280;25887;30.194;-97.880;2023-03-16T05:43:07;98428.41;;;20.42;54.26
38880;BME280;25887;30.194;-97.880;2023-03-16T05:45:33;98435.50;;;20.39;54.48
38880;BME280;25887;30.194;-97.880;2023-03-16T05:47:59;98432.03;;;20.38;54.54
38880;BME280;25887;30.194;-97.880;2023-03-16T05:50:45;98439.78;;;20.41;54.61
38880;BME280;25887;30.194;-97.880;2023-03-16T05:53:27;98436.41;;;20.38;54.58
38880;BME280;25887;30.194;-97.880;2023-03-16T05:55:53;98432.03;;;20.38;54.51
38880;BME280;25887;30.194;-97.880;2023-03-16T05:58:19;98417.28;;;20.37;54.76
38880;BME280;25887;30.194;-97.880;2023-03-16T06:00:45;98411.16;;;20.38;54.78
38880;BME280;25887;30.194;-97.880;2023-03-16T06:03:12;98408.63;;;20.37;54.75
38880;BME280;25887;30.194;-97.880;2023-03-16T06:05:38;98402.56;;;20.36;55.08
38880;BME280;25887;30.194;-97.880;2023-03-16T06:08:04;98397.34;;;20.36;54.89
38880;BME280;25887;30.194;-97.880;2023-03-16T06:10:30;98401.72;;;20.36;55.02
38880;BME280;25887;30.194;-97.880;2023-03-16T06:12:56;98393.09;;;20.34;55.27
38880;BME280;25887;30.194;-97.880;2023-03-16T06:15:23;98387.97;;;20.30;55.26
38880;BME280;25887;30.194;-97.880;2023-03-16T06:17:51;98385.44;;;20.29;55.18
38880;BME280;25887;30.194;-97.880;2023-03-16T06:20:17;98373.16;;;20.31;55.38
38880;BME280;25887;30.194;-97.880;2023-03-16T06:22:44;98377.53;;;20.30;55.34
38880;BME280;25887;30.194;-97.880;2023-03-16T06:25:12;98372.28;;;20.32;55.23
38880;BME280;25887;30.194;-97.880;2023-03-16T06:27:39;98368.88;;;20.30;55.75
38880;BME280;25887;30.194;-97.880;2023-03-16T06:30:16;98360.25;;;20.28;55.92
38880;BME280;25887;30.194;-97.880;2023-03-16T06:32:43;98347.34;;;20.25;55.88
38880;BME280;25887;30.194;-97.880;2023-03-16T06:35:12;98349.03;;;20.26;55.68
38880;BME280;25887;30.194;-97.880;2023-03-16T06:37:39;98333.47;;;20.24;55.92
38880;BME280;25887;30.194;-97.880;2023-03-16T06:40:06;98325.63;;;20.24;55.99
38880;BME280;25887;30.194;-97.880;2023-03-16T06:42:32;98307.41;;;20.23;56.00
38880;BME280;25887;30.194;-97.880;2023-03-16T06:44:58;98316.03;;;20.25;56.12
38880;BME280;25887;30.194;-97.880;2023-03-16T06:47:27;98305.69;;;20.23;56.07
38880;BME280;25887;30.194;-97.880;2023-03-16T06:49:53;98309.97;;;20.24;56.11
38880;BME280;25887;30.194;-97.880;2023-03-16T06:52:21;98308.22;;;20.25;56.00
38880;BME280;25887;30.194;-97.880;2023-03-16T06:54:47;98304.69;;;20.26;55.96
38880;BME280;25887;30.194;-97.880;2023-03-16T06:57:14;98301.31;;;20.24;56.39
38880;BME280;25887;30.194;-97.880;2023-03-16T06:59:40;98292.63;;;20.23;56.38
38880;BME280;25887;30.194;-97.880;2023-03-16T07:02:06;98278.72;;;20.23;56.37
38880;BME280;25887;30.194;-97.880;2023-03-16T07:04:32;98272.72;;;20.21;56.30
38880;BME280;25887;30.194;-97.880;2023-03-16T07:06:58;98265.81;;;20.20;56.11
38880;BME280;25887;30.194;-97.880;2023-03-16T07:09:25;98270.09;;;20.21;56.59
38880;BME280;25887;30.194;-97.880;2023-03-16T07:11:51;98260.59;;;20.20;56.67
38880;BME280;25887;30.194;-97.880;2023-03-16T07:14:17;98257.06;;;20.21;56.68
38880;BME280;25887;30.194;-97.880;2023-03-16T07:16:44;98257.91;;;20.21;56.56
38880;BME280;25887;30.194;-97.880;2023-03-16T07:19:10;98255.22;;;20.23;56.46
38880;BME280;25887;30.194;-97.880;2023-03-16T07:21:37;98249.25;;;20.21;56.62
38880;BME280;25887;30.194;-97.880;2023-03-16T07:24:08;98249.25;;;20.21;57.02
38880;BME280;25887;30.194;-97.880;2023-03-16T07:26:35;98248.31;;;20.22;57.02
38880;BME280;25887;30.194;-97.880;2023-03-16T07:29:01;98234.50;;;20.20;57.00
38880;BME280;25887;30.194;-97.880;2023-03-16T07:31:29;98228.38;;;20.21;56.99
38880;BME280;25887;30.194;-97.880;2023-03-16T07:33:57;98218.84;;;20.20;56.95
38880;BME280;25887;30.194;-97.880;2023-03-16T07:36:24;98218.78;;;20.21;57.09
38880;BME280;25887;30.194;-97.880;2023-03-16T07:38:52;98215.31;;;20.21;56.78
38880;BME280;25887;30.194;-97.880;2023-03-16T07:41:18;98218.72;;;20.23;57.07
38880;BME280;25887;30.194;-97.880;2023-03-16T07:43:46;98212.66;;;20.22;57.39
38880;BME280;25887;30.194;-97.880;2023-03-16T07:46:13;98215.22;;;20.24;56.94
38880;BME280;25887;30.194;-97.880;2023-03-16T07:48:40;98214.38;;;20.23;57.49
38880;BME280;25887;30.194;-97.880;2023-03-16T07:51:10;98202.22;;;20.22;57.61
38880;BME280;25887;30.194;-97.880;2023-03-16T07:53:38;98216.09;;;20.23;57.73
38880;BME280;25887;30.194;-97.880;2023-03-16T07:56:05;98217.00;;;20.22;57.58
38880;BME280;25887;30.194;-97.880;2023-03-16T07:58:32;98221.38;;;20.21;57.64
38880;BME280;25887;30.194;-97.880;2023-03-16T08:00:59;98223.94;;;20.23;57.74
38880;BME280;25887;30.194;-97.880;2023-03-16T08:03:27;98220.44;;;20.24;57.47
38880;BME280;25887;30.194;-97.880;2023-03-16T08:05:54;98210.84;;;20.24;57.55
38880;BME280;25887;30.194;-97.880;2023-03-16T08:08:21;98222.97;;;20.25;57.67
38880;BME280;25887;30.194;-97.880;2023-03-16T08:10:48;98210.78;;;20.26;57.66
38880;BME280;25887;30.194;-97.880;2023-03-16T08:13:17;98202.03;;;20.27;57.70
38880;BME280;25887;30.194;-97.880;2023-03-16T08:15:48;98208.09;;;20.27;57.51
38880;BME280;25887;30.194;-97.880;2023-03-16T08:18:15;98190.59;;;20.29;57.42
38880;BME280;25887;30.194;-97.880;2023-03-16T08:20:41;98189.75;;;20.29;57.90
38880;BME280;25887;30.194;-97.880;2023-03-16T08:23:09;98201.03;;;20.29;57.74
38880;BME280;25887;30.194;-97.880;2023-03-16T08:25:40;98193.28;;;20.28;57.61
38880;BME280;25887;30.194;-97.880;2023-03-16T08:28:06;98190.53;;;20.31;57.50
38880;BME280;25887;30.194;-97.880;2023-03-16T08:30:34;98187.94;;;20.31;57.91
38880;BME280;25887;30.194;-97.880;2023-03-16T08:33:01;98174.88;;;20.31;57.84
38880;BME280;25887;30.194;-97.880;2023-03-16T08:35:28;98174.88;;;20.31;57.77
38880;BME280;25887;30.194;-97.880;2023-03-16T08:37:55;98173.06;;;20.33;57.91
38880;BME280;25887;30.194;-97.880;2023-03-16T08:40:21;98158.28;;;20.34;57.95
38880;BME280;25887;30.194;-97.880;2023-03-16T08:42:49;98159.13;;;20.34;57.98
38880;BME280;25887;30.194;-97.880;2023-03-16T08:45:16;98147.75;;;20.35;57.99
38880;BME280;25887;30.194;-97.880;2023-03-16T08:47:44;98144.38;;;20.33;57.99
38880;BME280;25887;30.194;-97.880;2023-03-16T08:50:11;98146.84;;;20.36;57.97
38880;BME280;25887;30.194;-97.880;2023-03-16T08:52:38;98146.84;;;20.36;58.12
38880;BME280;25887;30.194;-97.880;2023-03-16T08:55:06;98133.03;;;20.34;58.10
38880;BME280;25887;30.194;-97.880;2023-03-16T08:57:34;98123.38;;;20.36;58.09
38880;BME280;25887;30.194;-97.880;2023-03-16T09:00:00;98129.34;;;20.38;58.03
38880;BME280;25887;30.194;-97.880;2023-03-16T09:02:28;98123.28;;;20.38;58.22
38880;BME280;25887;30.194;-97.880;2023-03-16T09:04:54;98120.63;;;20.39;57.95
38880;BME280;25887;30.194;-97.880;2023-03-16T09:07:20;98118.72;;;20.43;58.01
38880;BME280;25887;30.194;-97.880;2023-03-16T09:09:47;98124.78;;;20.43;58.19
38880;BME280;25887;30.194;-97.880;2023-03-16T09:12:15;98122.25;;;20.42;58.55
38880;BME280;25887;30.194;-97.880;2023-03-16T09:14:41;98113.59;;;20.41;58.66
38880;BME280;25887;30.194;-97.880;2023-03-16T09:17:07;98110.97;;;20.41;58.31
38880;BME280;25887;30.194;-97.880;2023-03-16T09:19:36;98104.84;;;20.42;58.55
38880;BME280;25887;30.194;-97.880;2023-03-16T09:22:02;98096.16;;;20.42;58.47
38880;BME280;25887;30.194;-97.880;2023-03-16T09:24:28;98092.63;;;20.43;58.69
38880;BME280;25887;30.194;-97.880;2023-03-16T09:26:55;98103.91;;;20.43;58.57
38880;BME280;25887;30.194;-97.880;2023-03-16T09:29:22;98103.06;;;20.43;58.66
38880;BME280;25887;30.194;-97.880;2023-03-16T09:31:49;98097.94;;;20.41;59.03
38880;BME280;25887;30.194;-97.880;2023-03-16T09:34:15;98095.19;;;20.44;58.84
38880;BME280;25887;30.194;-97.880;2023-03-16T09:36:41;98089.06;;;20.45;59.04
38880;BME280;25887;30.194;-97.880;2023-03-16T09:39:07;98072.56;;;20.45;59.14
38880;BME280;25887;30.194;-97.880;2023-03-16T09:41:58;98083.72;;;20.48;58.76
38880;BME280;25887;30.194;-97.880;2023-03-16T09:44:51;98069.00;;;20.47;59.33
38880;BME280;25887;30.194;-97.880;2023-03-16T09:47:31;98060.34;;;20.45;59.42
38880;BME280;25887;30.194;-97.880;2023-03-16T09:50:02;98047.38;;;20.44;59.38
38880;BME280;25887;30.194;-97.880;2023-03-16T09:55:14;98036.88;;;20.45;60.06
38880;BME280;25887;30.194;-97.880;2023-03-16T09:57:45;98019.44;;;20.46;60.06
38880;BME280;25887;30.194;-97.880;2023-03-16T10:00:21;98002.91;;;20.47;60.29
38880;BME280;25887;30.194;-97.880;2023-03-16T10:05:54;98052.25;;;20.51;60.23
38880;BME280;25887;30.194;-97.880;2023-03-16T10:08:23;98050.41;;;20.53;60.26
38880;BME280;25887;30.194;-97.880;2023-03-16T10:17:15;98030.03;;;20.62;60.29
38880;BME280;25887;30.194;-97.880;2023-03-16T10:19:49;98032.59;;;20.63;60.26
38880;BME280;25887;30.194;-97.880;2023-03-16T10:22:24;98048.03;;;20.68;60.50
38880;BME280;25887;30.194;-97.880;2023-03-16T10:25:01;98045.41;;;20.68;60.57
38880;BME280;25887;30.194;-97.880;2023-03-16T10:27:35;98048.78;;;20.70;60.65
38880;BME280;25887;30.194;-97.880;2023-03-16T10:32:47;98029.41;;;20.75;60.72
38880;BME280;25887;30.194;-97.880;2023-03-16T10:35:46;98031.81;;;20.80;60.76
38880;BME280;25887;30.194;-97.880;2023-03-16T10:40:53;98001.25;;;20.82;60.78
38880;BME280;25887;30.194;-97.880;2023-03-16T10:43:19;97992.41;;;20.84;61.02
38880;BME280;25887;30.194;-97.880;2023-03-16T10:45:45;97991.44;;;20.87;60.77
38880;BME280;25887;30.194;-97.880;2023-03-16T10:48:17;98011.41;;;20.88;60.86
38880;BME280;25887;30.194;-97.880;2023-03-16T10:50:50;98024.31;;;20.91;60.93
38880;BME280;25887;30.194;-97.880;2023-03-16T10:53:30;98043.34;;;20.93;60.75
38880;BME280;25887;30.194;-97.880;2023-03-16T10:56:07;98032.91;;;20.93;60.78
38880;BME280;25887;30.194;-97.880;2023-03-16T10:58:40;98029.41;;;20.94;60.89
38880;BME280;25887;30.194;-97.880;2023-03-16T11:01:23;98018.03;;;20.95;60.72
38880;BME280;25887;30.194;-97.880;2023-03-16T11:03:52;98008.56;;;20.93;60.96
38880;BME280;25887;30.194;-97.880;2023-03-16T11:06:26;97998.06;;;20.94;60.99
38880;BME280;25887;30.194;-97.880;2023-03-16T11:09:04;98006.78;;;20.93;60.99
38880;BME280;25887;30.194;-97.880;2023-03-16T11:11:34;98024.31;;;20.91;61.11
38880;BME280;25887;30.194;-97.880;2023-03-16T11:14:03;98035.66;;;20.90;61.34
38880;BME280;25887;30.194;-97.880;2023-03-16T11:16:50;98051.34;;;20.90;61.15
38880;BME280;25887;30.194;-97.880;2023-03-16T11:22:12;98044.50;;;20.88;61.08
38880;BME280;25887;30.194;-97.880;2023-03-16T11:27:34;98049.84;;;20.84;61.57
38880;BME280;25887;30.194;-97.880;2023-03-16T11:30:15;98026.34;;;20.84;61.45
38880;BME280;25887;30.194;-97.880;2023-03-16T11:32:50;98011.59;;;20.83;61.76
38880;BME280;25887;30.194;-97.880;2023-03-16T11:36:05;98023.06;;;20.81;61.86
38880;BME280;25887;30.194;-97.880;2023-03-16T11:56:53;98056.00;;;20.83;62.08
38880;BME280;25887;30.194;-97.880;2023-03-16T12:02:21;98052.47;;;20.84;62.12
38880;BME280;25887;30.194;-97.880;2023-03-16T12:10:49;98030.88;;;20.81;62.99
38880;BME280;25887;30.194;-97.880;2023-03-16T12:16:14;98028.28;;;20.81;62.57
38880;BME280;25887;30.194;-97.880;2023-03-16T12:18:51;98018.75;;;20.80;62.76
38880;BME280;25887;30.194;-97.880;2023-03-16T12:21:42;98002.16;;;20.81;63.03
38880;BME280;25887;30.194;-97.880;2023-03-16T12:24:21;97980.44;;;20.80;63.08
38880;BME280;25887;30.194;-97.880;2023-03-16T12:26:50;97957.84;;;20.79;63.34
38880;BME280;25887;30.194;-97.880;2023-03-16T12:46:11;98029.69;;;20.88;63.26
38880;BME280;25887;30.194;-97.880;2023-03-16T12:48:51;98032.22;;;20.90;63.04
38880;BME280;25887;30.194;-97.880;2023-03-16T12:51:18;98029.53;;;20.91;63.13
38880;BME280;25887;30.194;-97.880;2023-03-16T12:53:53;98035.50;;;20.93;63.11
38880;BME280;25887;30.194;-97.880;2023-03-16T12:56:29;98013.72;;;20.94;63.28
38880;BME280;25887;30.194;-97.880;2023-03-16T12:58:59;98014.50;;;20.96;63.38
38880;BME280;25887;30.194;-97.880;2023-03-16T13:01:29;98012.72;;;20.97;63.29
38880;BME280;25887;30.194;-97.880;2023-03-16T13:04:22;98016.94;;;20.99;63.38
38880;BME280;25887;30.194;-97.880;2023-03-16T13:07:06;97999.47;;;21.01;63.15
38880;BME280;25887;30.194;-97.880;2023-03-16T13:09:38;97978.56;;;21.01;63.42
38880;BME280;25887;30.194;-97.880;2023-03-16T13:12:07;97981.09;;;21.03;63.54
38880;BME280;25887;30.194;-97.880;2023-03-16T13:14:42;98005.38;;;21.05;63.49
38880;BME280;25887;30.194;-97.880;2023-03-16T13:19:56;98003.59;;;21.05;63.50
38880;BME280;25887;30.194;-97.880;2023-03-16T13:22:45;98008.63;;;21.10;63.59
38880;BME280;25887;30.194;-97.880;2023-03-16T13:27:54;98021.72;;;21.08;63.59
38880;BME280;25887;30.194;-97.880;2023-03-16T13:30:26;98013.00;;;21.09;63.75
38880;BME280;25887;30.194;-97.880;2023-03-16T13:33:03;98032.03;;;21.11;63.64
38880;BME280;25887;30.194;-97.880;2023-03-16T13:35:35;98026.81;;;21.11;63.65
38880;BME280;25887;30.194;-97.880;2023-03-16T13:38:11;98033.72;;;21.12;63.69
38880;BME280;25887;30.194;-97.880;2023-03-16T13:40:46;98037.09;;;21.14;63.91
38880;BME280;25887;30.194;-97.880;2023-03-16T13:43:24;98029.34;;;21.13;64.37
38880;BME280;25887;30.194;-97.880;2023-03-16T13:46:26;98032.81;;;21.13;64.12
38880;BME280;25887;30.194;-97.880;2023-03-16T13:48:57;98028.44;;;21.14;64.00
38880;BME280;25887;30.194;-97.880;2023-03-16T13:51:40;98024.03;;;21.14;63.93
38880;BME280;25887;30.194;-97.880;2023-03-16T13:54:20;98008.38;;;21.14;63.95
38880;BME280;25887;30.194;-97.880;2023-03-16T13:56:49;98005.69;;;21.16;64.26
38880;BME280;25887;30.194;-97.880;2023-03-16T13:59:16;97999.63;;;21.15;64.21
38880;BME280;25887;30.194;-97.880;2023-03-16T14:01:44;98011.75;;;21.17;64.33
38880;BME280;25887;30.194;-97.880;2023-03-16T14:04:13;98003.06;;;21.16;64.32
38880;BME280;25887;30.194;-97.880;2023-03-16T14:06:55;98004.78;;;21.17;64.12
38880;BME280;25887;30.194;-97.880;2023-03-16T14:09:24;97998.63;;;21.18;64.28
38880;BME280;25887;30.194;-97.880;2023-03-16T14:11:53;97996.03;;;21.18;64.28
38880;BME280;25887;30.194;-97.880;2023-03-16T14:14:38;97982.88;;;21.20;64.10
38880;BME280;25887;30.194;-97.880;2023-03-16T14:20:35;97975.97;;;21.19;64.42
38880;BME280;25887;30.194;-97.880;2023-03-16T14:23:01;97991.56;;;21.20;64.54
38880;BME280;25887;30.194;-97.880;2023-03-16T14:25:28;97988.09;;;21.20;64.02
38880;BME280;25887;30.194;-97.880;2023-03-16T14:30:25;98005.31;;;21.24;64.25
38880;BME280;25887;30.194;-97.880;2023-03-16T14:33:24;98011.31;;;21.26;64.36